createdAt,value
2022-10-17T00:01:08.947Z,11.78
2022-10-17T00:03:40.407Z,11.66
2022-10-17T00:06:11.864Z,11.58
2022-10-17T00:08:44.025Z,11.51
2022-10-17T00:11:18.500Z,11.60
2022-10-17T00:13:48.210Z,11.62
2022-10-17T00:16:27.240Z,11.57
2022-10-17T00:18:54.556Z,11.67
2022-10-17T00:21:23.022Z,11.63
2022-10-17T00:23:50.549Z,11.43
2022-10-17T00:26:18.661Z,11.61
2022-10-17T00:28:51.736Z,11.55
2022-10-17T00:31:21.385Z,11.61
2022-10-17T00:33:48.620Z,11.60
2022-10-17T00:36:23.262Z,11.61
2022-10-17T00:38:57.866Z,11.59
2022-10-17T00:41:33.161Z,11.72
2022-10-17T00:44:30.740Z,11.70
2022-10-17T00:47:11.280Z,11.72
2022-10-17T00:49:39.901Z,11.61
2022-10-17T00:52:21.438Z,11.71
2022-10-17T00:55:09.492Z,11.57
2022-10-17T00:57:36.921Z,11.52
2022-10-17T01:00:09.230Z,11.41
2022-10-17T01:02:36.248Z,11.45
2022-10-17T01:05:04.061Z,11.56
2022-10-17T01:07:34.932Z,11.54
2022-10-17T01:10:06.562Z,11.52
2022-10-17T01:13:07.327Z,11.17
2022-10-17T01:15:40.713Z,11.00
2022-10-17T01:18:42.930Z,11.22
2022-10-17T01:21:54.802Z,11.33
2022-10-17T01:24:49.423Z,11.32
2022-10-17T01:27:37.868Z,11.28
2022-10-17T01:30:45.976Z,11.25
2022-10-17T01:33:18.049Z,11.23
2022-10-17T01:36:03.283Z,11.24
2022-10-17T01:38:59.079Z,11.00
2022-10-17T01:41:44.445Z,11.16
2022-10-17T01:44:28.963Z,10.80
2022-10-17T01:47:11.071Z,11.13
2022-10-17T01:49:41.771Z,11.33
2022-10-17T01:52:15.436Z,11.05
2022-10-17T01:55:02.733Z,11.34
2022-10-17T01:57:41.497Z,11.54
2022-10-17T02:00:19.179Z,11.49
2022-10-17T02:02:49.053Z,11.70
2022-10-17T02:05:21.848Z,11.69
2022-10-17T02:07:48.919Z,11.78
2022-10-17T02:10:30.983Z,11.80
2022-10-17T02:13:45.843Z,11.90
2022-10-17T02:16:38.315Z,11.84
2022-10-17T02:19:42.760Z,11.85
2022-10-17T02:22:24.827Z,11.70
2022-10-17T02:25:37.095Z,11.80
2022-10-17T02:28:36.179Z,11.85
2022-10-17T02:31:17.059Z,11.94
2022-10-17T02:34:03.102Z,11.92
2022-10-17T02:36:45.374Z,12.06
2022-10-17T02:39:15.698Z,12.15
2022-10-17T02:41:44.947Z,12.28
2022-10-17T02:44:12.550Z,12.09
2022-10-17T02:46:42.556Z,12.02
2022-10-17T02:49:22.977Z,12.30
2022-10-17T02:52:04.419Z,12.41
2022-10-17T02:54:39.185Z,12.39
2022-10-17T02:57:27.594Z,12.60
2022-10-17T03:00:00.596Z,12.62
2022-10-17T03:02:28.248Z,12.67
2022-10-17T03:04:56.448Z,12.53
2022-10-17T03:07:23.563Z,12.56
2022-10-17T03:09:50.838Z,12.63
2022-10-17T03:12:17.907Z,12.76
2022-10-17T03:14:45.083Z,12.91
2022-10-17T03:17:14.694Z,12.85
2022-10-17T03:19:41.886Z,13.03
2022-10-17T03:22:09.250Z,13.05
2022-10-17T03:24:36.310Z,12.98
2022-10-17T03:27:03.774Z,13.00
2022-10-17T03:29:31.035Z,12.96
2022-10-17T03:31:58.159Z,13.05
2022-10-17T03:34:25.289Z,12.54
2022-10-17T03:36:52.427Z,13.01
2022-10-17T03:39:21.745Z,13.08
2022-10-17T03:41:48.885Z,13.03
2022-10-17T03:44:16.026Z,13.27
2022-10-17T03:46:43.180Z,13.28
2022-10-17T03:49:13.311Z,13.35
2022-10-17T03:51:40.408Z,13.46
2022-10-17T03:54:07.437Z,13.59
2022-10-17T03:56:34.504Z,13.55
2022-10-17T03:59:01.622Z,13.51
2022-10-17T04:01:31.972Z,13.54
2022-10-17T04:04:01.808Z,12.92
2022-10-17T04:06:28.892Z,12.23
2022-10-17T04:08:59.152Z,12.34
2022-10-17T04:11:26.433Z,12.76
2022-10-17T04:14:03.333Z,12.21
2022-10-17T04:16:30.586Z,12.11
2022-10-17T04:18:59.887Z,11.89
2022-10-17T04:21:28.551Z,12.35
2022-10-17T04:24:00.653Z,12.77
2022-10-17T04:26:28.251Z,13.06
2022-10-17T04:28:56.367Z,13.14
2022-10-17T04:31:23.742Z,13.24
2022-10-17T04:33:51.309Z,13.36
2022-10-17T04:36:20.881Z,13.13
2022-10-17T04:38:48.340Z,13.32
2022-10-17T04:41:28.222Z,13.38
2022-10-17T04:43:57.662Z,13.37
2022-10-17T04:46:24.875Z,13.37
2022-10-17T04:48:52.093Z,13.40
2022-10-17T04:51:21.838Z,13.41
2022-10-17T04:53:53.999Z,13.42
2022-10-17T04:56:23.844Z,13.42
2022-10-17T04:58:52.046Z,13.45
2022-10-17T05:01:21.878Z,13.33
2022-10-17T05:03:49.853Z,13.38
2022-10-17T05:06:21.691Z,13.46
2022-10-17T05:08:49.113Z,13.52
2022-10-17T05:11:26.615Z,13.56
2022-10-17T05:14:01.752Z,13.67
2022-10-17T05:16:30.147Z,13.53
2022-10-17T05:18:59.482Z,13.63
2022-10-17T05:21:29.223Z,13.58
2022-10-17T05:23:56.614Z,13.63
2022-10-17T05:26:27.326Z,13.50
2022-10-17T05:28:54.851Z,13.43
2022-10-17T05:31:24.643Z,13.11
2022-10-17T05:33:51.706Z,13.21
2022-10-17T05:36:18.783Z,13.04
2022-10-17T05:38:51.288Z,13.29
2022-10-17T05:41:19.793Z,13.52
2022-10-17T05:43:47.137Z,13.39
2022-10-17T05:46:14.488Z,13.65
2022-10-17T05:48:41.531Z,13.46
2022-10-17T05:51:13.145Z,13.77
2022-10-17T05:53:41.857Z,13.92
2022-10-17T05:56:12.538Z,14.06
2022-10-17T05:58:50.164Z,14.04
2022-10-17T06:01:19.232Z,14.36
2022-10-17T06:03:46.579Z,14.51
2022-10-17T06:06:15.634Z,14.54
2022-10-17T06:08:43.390Z,14.94
2022-10-17T06:11:13.839Z,15.36
2022-10-17T06:13:57.287Z,15.83
2022-10-17T06:16:26.987Z,15.52
2022-10-17T06:18:54.337Z,16.14
2022-10-17T06:21:28.573Z,16.14
2022-10-17T06:23:55.592Z,16.25
2022-10-17T06:26:27.282Z,16.52
2022-10-17T06:28:57.997Z,16.52
2022-10-17T06:31:25.238Z,17.23
2022-10-17T06:33:52.276Z,17.56
2022-10-17T06:36:19.431Z,17.59
2022-10-17T06:38:46.772Z,17.68
2022-10-17T06:41:18.615Z,17.54
2022-10-17T06:43:47.274Z,17.67
2022-10-17T06:46:17.725Z,17.45
2022-10-17T06:48:45.416Z,16.84
2022-10-17T06:51:13.226Z,17.29
2022-10-17T06:53:41.121Z,17.33
2022-10-17T06:56:10.292Z,18.12
2022-10-17T06:58:39.957Z,18.83
2022-10-17T07:01:13.326Z,19.07
2022-10-17T07:03:43.737Z,19.22
2022-10-17T07:06:11.407Z,18.95
2022-10-17T07:08:42.401Z,18.97
2022-10-17T07:11:16.097Z,19.14
2022-10-17T07:13:43.865Z,18.10
2022-10-17T07:16:12.322Z,17.69
2022-10-17T07:18:40.327Z,18.07
2022-10-17T07:21:08.874Z,17.85
2022-10-17T07:23:37.384Z,18.21
2022-10-17T07:26:09.372Z,18.28
2022-10-17T07:28:37.978Z,17.87
2022-10-17T07:31:12.050Z,19.04
2022-10-17T07:33:41.823Z,19.56
2022-10-17T07:36:12.611Z,19.68
2022-10-17T07:38:40.166Z,20.77
2022-10-17T07:41:20.805Z,21.75
2022-10-17T07:43:54.377Z,21.98
2022-10-17T07:46:36.374Z,21.54
2022-10-17T07:49:03.604Z,21.27
2022-10-17T07:51:33.612Z,21.83
2022-10-17T07:54:00.918Z,21.31
2022-10-17T07:56:29.668Z,21.35
2022-10-17T07:59:02.757Z,22.39
2022-10-17T08:01:34.748Z,22.23
2022-10-17T08:04:01.828Z,22.65
2022-10-17T08:06:31.308Z,23.57
2022-10-17T08:08:58.856Z,23.57
2022-10-17T08:11:28.336Z,23.64
2022-10-17T08:13:56.161Z,25.18
2022-10-17T08:16:25.277Z,25.40
2022-10-17T08:18:52.291Z,25.47
2022-10-17T08:21:21.751Z,26.24
2022-10-17T08:23:48.804Z,24.91
2022-10-17T08:26:17.408Z,24.00
2022-10-17T08:28:44.571Z,24.14
2022-10-17T08:31:20.954Z,24.25
2022-10-17T08:33:52.517Z,23.95
2022-10-17T08:36:22.286Z,23.65
2022-10-17T08:38:53.095Z,24.37
2022-10-17T08:41:39.009Z,24.53
2022-10-17T08:44:49.908Z,26.38
2022-10-17T08:47:28.258Z,25.93
2022-10-17T08:50:02.000Z,25.58
2022-10-17T08:53:02.892Z,26.48
2022-10-17T08:55:53.162Z,26.91
2022-10-17T08:58:36.884Z,27.50
2022-10-17T09:01:31.995Z,25.42
2022-10-17T09:04:46.517Z,24.73
2022-10-17T09:07:41.822Z,25.05
2022-10-17T09:10:19.456Z,24.07
2022-10-17T09:13:27.337Z,25.31
2022-10-17T09:16:31.092Z,23.84
2022-10-17T09:19:20.276Z,22.44
2022-10-17T09:22:10.704Z,21.97
2022-10-17T09:24:45.950Z,23.41
2022-10-17T09:27:36.879Z,22.30
2022-10-17T09:30:46.509Z,22.37
2022-10-17T09:33:42.227Z,21.60
2022-10-17T09:36:24.996Z,23.26
2022-10-17T09:39:05.715Z,23.48
2022-10-17T09:41:48.240Z,22.78
2022-10-17T09:44:22.574Z,23.96
2022-10-17T09:47:11.168Z,23.81
2022-10-17T09:49:45.010Z,25.49
2022-10-17T09:52:39.715Z,25.21
2022-10-17T09:55:22.609Z,25.65
2022-10-17T09:57:58.401Z,26.16
2022-10-17T10:00:31.825Z,26.69
2022-10-17T10:03:22.894Z,25.02
2022-10-17T10:06:12.541Z,23.72
2022-10-17T10:08:58.847Z,25.21
2022-10-17T10:12:15.862Z,24.89
2022-10-17T10:14:46.261Z,25.87
2022-10-17T10:17:44.262Z,26.87
2022-10-17T10:20:37.354Z,27.74
2022-10-17T10:23:19.521Z,28.88
2022-10-17T10:25:56.690Z,27.50
2022-10-17T10:28:37.470Z,26.51
2022-10-17T10:31:09.861Z,26.96
2022-10-17T10:33:45.937Z,27.58
2022-10-17T10:36:16.552Z,25.81
2022-10-17T10:39:00.171Z,25.12
2022-10-17T10:41:48.040Z,25.12
2022-10-17T10:44:21.629Z,26.16
2022-10-17T10:46:48.725Z,26.15
2022-10-17T10:49:31.676Z,25.74
2022-10-17T10:52:00.533Z,26.16
2022-10-17T10:54:42.322Z,26.53
2022-10-17T10:57:13.595Z,27.17
2022-10-17T10:59:51.925Z,27.45
2022-10-17T11:02:25.198Z,27.36
2022-10-17T11:05:14.545Z,28.19
2022-10-17T11:07:56.200Z,27.50
2022-10-17T11:10:55.366Z,27.58
2022-10-17T11:13:32.925Z,26.54
2022-10-17T11:16:21.890Z,27.06
2022-10-17T11:19:28.525Z,26.29
2022-10-17T11:22:15.008Z,27.41
2022-10-17T11:24:59.776Z,28.21
2022-10-17T11:27:29.671Z,28.88
2022-10-17T11:29:59.449Z,28.23
2022-10-17T11:32:40.641Z,27.83
2022-10-17T11:35:25.183Z,27.45
2022-10-17T11:38:24.363Z,27.70
2022-10-17T11:40:56.112Z,26.80
2022-10-17T11:43:48.831Z,26.91
2022-10-17T11:46:25.638Z,28.14
2022-10-17T11:49:38.223Z,27.12
2022-10-17T11:52:37.441Z,27.36
2022-10-17T11:55:18.433Z,27.04
2022-10-17T11:58:10.215Z,27.05
2022-10-17T12:00:58.965Z,27.60
2022-10-17T12:04:02.292Z,28.45
2022-10-17T12:07:14.100Z,27.02
2022-10-17T12:10:27.832Z,27.08
2022-10-17T12:12:54.971Z,27.30
2022-10-17T12:15:27.135Z,26.28
2022-10-17T12:18:04.306Z,26.83
2022-10-17T12:20:40.541Z,27.40
2022-10-17T12:23:16.569Z,26.36
2022-10-17T12:26:05.750Z,26.09
2022-10-17T12:28:46.829Z,25.30
2022-10-17T12:31:17.404Z,25.72
2022-10-17T12:34:02.589Z,24.88
2022-10-17T12:36:32.116Z,25.03
2022-10-17T12:39:02.237Z,24.87
2022-10-17T12:41:38.497Z,24.83
2022-10-17T12:44:15.032Z,25.34
2022-10-17T12:47:10.834Z,25.40
2022-10-17T12:49:44.177Z,25.27
2022-10-17T12:52:29.002Z,24.94
2022-10-17T12:55:14.787Z,24.48
2022-10-17T12:58:09.460Z,24.97
2022-10-17T13:01:19.130Z,24.55
2022-10-17T13:03:47.770Z,25.22
2022-10-17T13:06:37.926Z,25.68
2022-10-17T13:09:26.859Z,25.45
2022-10-17T13:11:55.446Z,25.29
2022-10-17T13:14:25.002Z,24.44
2022-10-17T13:17:01.848Z,24.28
2022-10-17T13:19:44.940Z,25.20
2022-10-17T13:22:24.466Z,24.19
2022-10-17T13:25:05.457Z,25.18
2022-10-17T13:27:35.070Z,24.99
2022-10-17T13:30:29.476Z,25.01
2022-10-17T13:33:00.034Z,24.97
2022-10-17T13:38:32.350Z,24.80
2022-10-17T13:41:23.297Z,24.94
2022-10-17T13:43:48.490Z,24.90
2022-10-17T13:46:39.547Z,25.27
2022-10-17T13:49:35.457Z,24.90
2022-10-17T13:52:06.275Z,24.25
2022-10-17T13:54:45.883Z,24.58
2022-10-17T13:57:24.288Z,24.11
2022-10-17T14:00:03.125Z,24.66
2022-10-17T14:02:34.912Z,24.75
2022-10-17T14:05:19.198Z,24.45
2022-10-17T14:08:12.037Z,23.90
2022-10-17T14:10:43.301Z,23.91
2022-10-17T14:13:30.348Z,24.26
2022-10-17T14:16:01.847Z,24.13
2022-10-17T14:18:36.408Z,24.54
2022-10-17T14:24:13.538Z,23.48
2022-10-17T14:26:59.978Z,23.69
2022-10-17T14:29:32.571Z,23.37
2022-10-17T14:32:10.914Z,23.39
2022-10-17T14:34:40.884Z,23.70
2022-10-17T14:37:28.623Z,23.38
2022-10-17T14:39:58.952Z,23.31
2022-10-17T14:42:26.353Z,23.64
2022-10-17T14:44:57.890Z,23.48
2022-10-17T14:47:42.705Z,23.35
2022-10-17T14:50:13.447Z,23.30
2022-10-17T14:52:43.333Z,23.18
2022-10-17T14:55:28.784Z,23.30
2022-10-17T14:57:56.383Z,23.03
2022-10-17T15:00:25.013Z,22.83
2022-10-17T15:02:54.354Z,23.03
2022-10-17T15:05:23.784Z,22.86
2022-10-17T15:07:51.061Z,22.86
2022-10-17T15:10:36.756Z,22.95
2022-10-17T15:13:26.130Z,23.12
2022-10-17T15:15:52.601Z,22.97
2022-10-17T15:18:19.767Z,22.92
2022-10-17T15:20:59.604Z,22.80
2022-10-17T15:23:32.352Z,22.35
2022-10-17T15:25:59.456Z,22.32
2022-10-17T15:28:27.494Z,22.18
2022-10-17T15:30:54.650Z,22.39
2022-10-17T15:33:21.706Z,22.09
2022-10-17T15:35:51.770Z,22.04
2022-10-17T15:38:18.854Z,21.86
2022-10-17T15:40:53.300Z,21.97
2022-10-17T15:43:20.352Z,21.77
2022-10-17T15:45:48.187Z,21.88
2022-10-17T15:48:26.736Z,21.78
2022-10-17T15:50:55.870Z,21.62
2022-10-17T15:53:23.981Z,21.59
2022-10-17T15:55:51.136Z,21.35
2022-10-17T15:58:19.656Z,21.59
2022-10-17T16:00:47.751Z,21.26
2022-10-17T16:03:14.950Z,21.19
2022-10-17T16:05:41.987Z,21.26
2022-10-17T16:08:09.083Z,21.03
2022-10-17T16:10:40.880Z,21.17
2022-10-17T16:13:28.997Z,20.95
2022-10-17T16:15:56.040Z,21.09
2022-10-17T16:18:23.092Z,21.16
2022-10-17T16:20:52.609Z,21.39
2022-10-17T16:23:19.689Z,21.33
2022-10-17T16:25:46.810Z,21.33
2022-10-17T16:28:13.867Z,21.19
2022-10-17T16:30:44.934Z,20.99
2022-10-17T16:33:12.796Z,21.17
2022-10-17T16:35:42.387Z,21.07
2022-10-17T16:38:09.479Z,20.74
2022-10-17T16:40:39.302Z,20.59
2022-10-17T16:43:07.678Z,20.58
2022-10-17T16:45:36.113Z,20.76
2022-10-17T16:48:03.494Z,20.45
2022-10-17T16:50:35.313Z,20.90
2022-10-17T16:53:03.993Z,21.03
2022-10-17T16:55:31.023Z,20.80
2022-10-17T16:57:59.970Z,21.04
2022-10-17T17:00:29.379Z,20.95
2022-10-17T17:02:58.771Z,21.08
2022-10-17T17:05:25.839Z,20.65
2022-10-17T17:07:53.167Z,20.89
2022-10-17T17:10:22.648Z,20.93
2022-10-17T17:12:49.653Z,20.95
2022-10-17T17:15:16.688Z,21.02
2022-10-17T17:17:50.586Z,21.00
2022-10-17T17:20:20.569Z,20.96
2022-10-17T17:22:50.880Z,20.97
2022-10-17T17:25:17.953Z,20.65
2022-10-17T17:27:44.935Z,20.83
2022-10-17T17:30:12.324Z,20.53
2022-10-17T17:32:42.164Z,20.64
2022-10-17T17:35:09.841Z,20.46
2022-10-17T17:37:37.113Z,20.39
2022-10-17T17:40:06.177Z,20.56
2022-10-17T17:42:35.558Z,20.35
2022-10-17T17:45:03.251Z,20.48
2022-10-17T17:47:30.580Z,20.56
2022-10-17T17:49:57.862Z,20.27
2022-10-17T17:52:25.209Z,20.18
2022-10-17T17:54:52.238Z,20.27
2022-10-17T17:57:19.358Z,20.47
2022-10-17T17:59:49.862Z,20.46
2022-10-17T18:02:17.335Z,20.39
2022-10-17T18:04:46.427Z,20.07
2022-10-17T18:07:13.454Z,20.30
2022-10-17T18:09:40.471Z,19.96
2022-10-17T18:12:09.944Z,20.18
2022-10-17T18:14:36.942Z,20.13
2022-10-17T18:17:03.999Z,20.14
2022-10-17T18:19:31.158Z,19.80
2022-10-17T18:22:00.708Z,19.93
2022-10-17T18:24:27.926Z,19.94
2022-10-17T18:26:59.681Z,19.75
2022-10-17T18:29:27.680Z,20.01
2022-10-17T18:31:57.226Z,20.04
2022-10-17T18:34:24.734Z,19.98
2022-10-17T18:36:52.965Z,19.55
2022-10-17T18:39:20.565Z,19.37
2022-10-17T18:41:47.614Z,19.43
2022-10-17T18:44:15.673Z,19.23
2022-10-17T18:46:43.200Z,19.13
2022-10-17T18:49:15.935Z,19.01
2022-10-17T18:51:45.489Z,18.86
2022-10-17T18:54:20.669Z,18.73
2022-10-17T18:56:53.966Z,18.85
2022-10-17T18:59:23.827Z,18.96
2022-10-17T19:01:51.097Z,19.07
2022-10-17T19:04:20.793Z,19.03
2022-10-17T19:06:47.917Z,19.13
2022-10-17T19:09:15.968Z,19.32
2022-10-17T19:11:43.540Z,19.38
2022-10-17T19:14:13.497Z,19.39
2022-10-17T19:16:51.739Z,19.37
2022-10-17T19:19:23.213Z,19.42
2022-10-17T19:21:51.326Z,19.37
2022-10-17T19:24:25.041Z,19.23
2022-10-17T19:26:58.320Z,19.26
2022-10-17T19:29:28.678Z,19.10
2022-10-17T19:34:22.768Z,18.83
2022-10-17T19:36:49.918Z,18.66
2022-10-17T19:39:26.623Z,18.58
2022-10-17T19:41:53.771Z,18.45
2022-10-17T19:44:20.994Z,18.32
2022-10-17T19:46:50.538Z,18.34
2022-10-17T19:49:20.269Z,18.16
2022-10-17T19:51:47.423Z,18.25
2022-10-17T19:54:18.271Z,18.22
2022-10-17T19:56:45.369Z,18.21
2022-10-17T19:59:17.022Z,18.18
2022-10-17T20:01:45.086Z,18.11
2022-10-17T20:04:13.043Z,18.32
2022-10-17T20:06:41.215Z,18.35
2022-10-17T20:09:13.953Z,18.29
2022-10-17T20:11:49.232Z,18.32
2022-10-17T20:14:18.475Z,17.95
2022-10-17T20:16:50.143Z,18.13
2022-10-17T20:19:19.129Z,18.10
2022-10-17T20:21:46.340Z,18.05
2022-10-17T20:24:17.067Z,18.07
2022-10-17T20:27:04.430Z,18.00
2022-10-17T20:29:31.665Z,18.13
2022-10-17T20:31:59.022Z,18.08
2022-10-17T20:34:26.157Z,18.11
2022-10-17T20:36:55.518Z,17.83
2022-10-17T20:39:23.469Z,17.94
2022-10-17T20:41:50.541Z,18.30
2022-10-17T20:44:17.764Z,18.33
2022-10-17T20:46:57.628Z,18.31
2022-10-17T20:49:28.712Z,18.37
2022-10-17T20:51:56.091Z,18.34
2022-10-17T20:54:23.257Z,18.40
2022-10-17T20:56:50.413Z,18.04
2022-10-17T20:59:18.278Z,18.01
2022-10-17T21:01:46.231Z,18.18
2022-10-17T21:07:01.581Z,18.02
2022-10-17T21:09:28.702Z,18.00
2022-10-17T21:11:58.123Z,18.06
2022-10-17T21:14:28.676Z,18.16
2022-10-17T21:16:55.804Z,18.06
2022-10-17T21:19:22.915Z,18.07
2022-10-17T21:21:50.782Z,18.07
2022-10-17T21:24:20.562Z,18.07
2022-10-17T21:26:55.296Z,18.09
2022-10-17T21:29:23.842Z,17.95
2022-10-17T21:31:51.460Z,17.92
2022-10-17T21:34:23.917Z,18.11
2022-10-17T21:36:53.912Z,18.23
2022-10-17T21:39:25.968Z,18.17
2022-10-17T21:41:55.281Z,18.27
2022-10-17T21:44:25.364Z,18.13
2022-10-17T21:46:53.637Z,18.28
2022-10-17T21:49:25.384Z,18.31
2022-10-17T21:51:53.275Z,18.07
2022-10-17T21:54:23.074Z,18.01
2022-10-17T21:56:51.219Z,17.91
2022-10-17T21:59:18.512Z,17.82
2022-10-17T22:01:48.445Z,17.97
2022-10-17T22:04:19.182Z,18.07
2022-10-17T22:06:51.141Z,17.97
2022-10-17T22:09:26.524Z,18.06
2022-10-17T22:11:57.869Z,18.04
2022-10-17T22:14:28.338Z,18.07
2022-10-17T22:16:56.263Z,17.99
2022-10-17T22:19:28.391Z,17.98
2022-10-17T22:21:55.450Z,17.72
2022-10-17T22:24:25.443Z,17.59
2022-10-17T22:26:52.750Z,17.87
2022-10-17T22:29:22.003Z,17.76
2022-10-17T22:31:49.311Z,17.83
2022-10-17T22:34:18.030Z,18.07
2022-10-17T22:36:49.037Z,17.81
2022-10-17T22:39:16.455Z,17.74
2022-10-17T22:41:46.021Z,17.75
2022-10-17T22:44:13.230Z,17.81
2022-10-17T22:46:43.014Z,17.72
2022-10-17T22:49:12.483Z,17.75
2022-10-17T22:51:39.665Z,17.85
2022-10-17T22:54:06.881Z,17.67
2022-10-17T22:56:33.960Z,17.65
2022-10-17T22:59:01.019Z,17.69
2022-10-17T23:01:28.140Z,17.46
2022-10-17T23:03:57.585Z,17.51
2022-10-17T23:06:24.879Z,17.73
2022-10-17T23:08:52.448Z,17.76
2022-10-17T23:11:21.033Z,17.60
2022-10-17T23:13:48.669Z,17.62
2022-10-17T23:16:16.110Z,17.59
2022-10-17T23:18:44.222Z,17.37
2022-10-17T23:21:14.334Z,17.51
2022-10-17T23:23:41.440Z,17.49
2022-10-17T23:26:16.548Z,17.60
2022-10-17T23:28:43.938Z,17.52
2022-10-17T23:31:22.358Z,17.52
2022-10-17T23:33:50.311Z,17.36
2022-10-17T23:36:23.069Z,17.36
2022-10-17T23:38:52.650Z,17.48
2022-10-17T23:41:22.149Z,17.45
2022-10-17T23:43:49.234Z,17.12
2022-10-17T23:46:16.296Z,17.22
2022-10-17T23:48:46.011Z,17.13
2022-10-17T23:51:13.347Z,17.35
2022-10-17T23:53:41.244Z,17.35
2022-10-17T23:56:10.383Z,17.22
2022-10-17T23:58:42.904Z,17.28
